Summary for RAINWISE1

Rainwise Factory, Bar Harbor, ME 04609
Join the PWSweather.com Network
View data in metric units
Latest Conditions
Updated 5:20:00 AM EDT Thursday, Oct 23, 2014
Data Currently Today's Max Today's Min Today's Average
Temperature 49.7°F9.8°C 49.7°F9.8°C 47.2°F8.4°C 48.5°F9.2°C
Dew Point 49.0°F9.4°C 49.2°F9.6°C 45.9°F7.7°C 47.7°F8.7°C
Winds 4.9 mph ENE7.9 kmh ENE 7.5 mph ENE12.1 kmh ENE 2.9 mph4.7 kmh 5.0 mph8.0 kmh
Wind Gusts 12.5 mph20.1 kmh 19.1 mph30.7 kmh 7.0 mph11.3 kmh 12.4 mph20.0 kmh
Humidity 98% 99% 95% 98%
Pressure 29.93 in1013.5 mb 30.04 in1017.3 mb 29.92 in1013.2 mb 29.98 in1015.2 mb
Precipitation 0.17 in4.3 mm - - 0.00 in0.0 mm
Trends
 
Station Profile
Rainwise FactoryBar Harbor, ME 04609

Lat: 44.39, Lon: -68.208
Elevation: 29
Station Type: Rainwise MK-III

Detailed Summary for Thu, Oct 23, 2014
Hour (EDT) Temperature Dew Point Humidity Winds Wind Gusts Pressure Precip Precip Rate Daily Precip Total
05:20 AM 49.7°F9.8°C 49.0°F9.4°C 98% 4.9 mph ENE7.9 kmh ENE 12.5 mph20.1 kmh 29.93 in1013.5 mb 0.00 in0.0 mm 0.00 in/hr0.0 mm/hr 0.17 in4.3 mm
05:15 AM 49.7°F9.8°C 49.0°F9.4°C 98% 3.4 mph E5.5 kmh E 8.1 mph13.0 kmh 29.93 in1013.5 mb 0.00 in0.0 mm 0.00 in/hr0.0 mm/hr 0.16 in4.1 mm
05:10 AM 49.7°F9.8°C 49.0°F9.4°C 98% 3.3 mph E5.3 kmh E 9.3 mph15.0 kmh 29.93 in1013.5 mb 0.00 in0.0 mm 0.00 in/hr0.0 mm/hr 0.16 in4.1 mm
05:05 AM 49.7°F9.8°C 48.9°F9.4°C 98% 3.7 mph NE6.0 kmh NE 7.0 mph11.3 kmh 29.93 in1013.5 mb 0.00 in0.0 mm 0.00 in/hr0.0 mm/hr 0.16 in4.1 mm
05:00 AM 49.5°F9.7°C 49.1°F9.5°C 99% 4.3 mph ENE6.9 kmh ENE 9.3 mph15.0 kmh 29.93 in1013.5 mb 0.00 in0.0 mm 0.00 in/hr0.0 mm/hr 0.16 in4.1 mm
04:55 AM 49.3°F9.6°C 48.9°F9.4°C 99% 3.9 mph NE6.3 kmh NE 9.3 mph15.0 kmh 29.92 in1013.2 mb 0.00 in0.0 mm 0.00 in/hr0.0 mm/hr 0.16 in4.1 mm
04:50 AM 49.5°F9.7°C 49.1°F9.5°C 99% 4.4 mph NE7.1 kmh NE 9.3 mph15.0 kmh 29.92 in1013.2 mb 0.00 in0.0 mm 0.00 in/hr0.0 mm/hr 0.15 in3.8 mm
04:45 AM 49.6°F9.8°C 49.2°F9.6°C 99% 5.4 mph NE8.7 kmh NE 10.0 mph16.1 kmh 29.93 in1013.5 mb 0.00 in0.0 mm 0.00 in/hr0.0 mm/hr 0.15 in3.8 mm
04:40 AM 49.6°F9.8°C 49.2°F9.6°C 99% 6.4 mph NE10.3 kmh NE 13.0 mph20.9 kmh 29.93 in1013.5 mb 0.00 in0.0 mm 0.00 in/hr0.0 mm/hr 0.14 in3.6 mm
04:35 AM 49.5°F9.7°C 49.1°F9.5°C 99% 5.1 mph ENE8.2 kmh ENE 10.0 mph16.1 kmh 29.94 in1013.9 mb 0.00 in0.0 mm 0.00 in/hr0.0 mm/hr 0.14 in3.6 mm
04:30 AM 49.5°F9.7°C 49.1°F9.5°C 99% 3.6 mph NE5.8 kmh NE 9.5 mph15.3 kmh 29.94 in1013.9 mb 0.00 in0.0 mm 0.00 in/hr0.0 mm/hr 0.14 in3.6 mm
04:25 AM 49.5°F9.7°C 49.1°F9.5°C 99% 4.2 mph NE6.8 kmh NE 9.3 mph15.0 kmh 29.95 in1014.2 mb 0.00 in0.0 mm 0.00 in/hr0.0 mm/hr 0.14 in3.6 mm
04:20 AM 49.3°F9.6°C 48.9°F9.4°C 99% 4.7 mph NE7.6 kmh NE 12.5 mph20.1 kmh 29.95 in1014.2 mb 0.00 in0.0 mm 0.00 in/hr0.0 mm/hr 0.12 in3.0 mm
04:15 AM 49.2°F9.6°C 48.8°F9.3°C 99% 4.5 mph NE7.2 kmh NE 12.5 mph20.1 kmh 29.95 in1014.2 mb 0.00 in0.0 mm 0.00 in/hr0.0 mm/hr 0.12 in3.0 mm
04:10 AM 49.2°F9.6°C 48.8°F9.3°C 99% 4.3 mph E6.9 kmh E 11.0 mph17.7 kmh 29.95 in1014.2 mb 0.00 in0.0 mm 0.00 in/hr0.0 mm/hr 0.11 in2.8 mm
04:05 AM 49.2°F9.6°C 48.8°F9.3°C 99% 4.9 mph ENE7.9 kmh ENE 10.6 mph17.1 kmh 29.96 in1014.6 mb 0.00 in0.0 mm 0.00 in/hr0.0 mm/hr 0.11 in2.8 mm
04:00 AM 49.2°F9.6°C 48.8°F9.3°C 99% 2.9 mph NNE4.7 kmh NNE 8.5 mph13.7 kmh 29.96 in1014.6 mb 0.00 in0.0 mm 0.00 in/hr0.0 mm/hr 0.10 in2.5 mm
03:55 AM 49.2°F9.6°C 48.5°F9.2°C 98% 5.0 mph ENE8.0 kmh ENE 14.0 mph22.5 kmh 29.95 in1014.2 mb 0.00 in0.0 mm 0.00 in/hr0.0 mm/hr 0.08 in2.0 mm
03:50 AM 49.2°F9.6°C 48.5°F9.2°C 98% 3.1 mph E5.0 kmh E 9.0 mph14.5 kmh 29.95 in1014.2 mb 0.00 in0.0 mm 0.00 in/hr0.0 mm/hr 0.06 in1.5 mm
03:45 AM 49.2°F9.6°C 48.5°F9.2°C 98% 5.6 mph ENE9.0 kmh ENE 16.1 mph25.9 kmh 29.95 in1014.2 mb 0.00 in0.0 mm 0.00 in/hr0.0 mm/hr 0.05 in1.3 mm
03:40 AM 49.2°F9.6°C 48.5°F9.2°C 98% 3.1 mph E5.0 kmh E 10.5 mph16.9 kmh 29.96 in1014.6 mb 0.00 in0.0 mm 0.00 in/hr0.0 mm/hr 0.02 in0.5 mm
03:35 AM 49.2°F9.6°C 48.5°F9.2°C 98% 6.5 mph ENE10.5 kmh ENE 16.1 mph25.9 kmh 29.95 in1014.2 mb 0.00 in0.0 mm 0.00 in/hr0.0 mm/hr 0.02 in0.5 mm
03:30 AM 49.1°F9.5°C 48.8°F9.3°C 99% 5.6 mph ENE9.0 kmh ENE 14.1 mph22.7 kmh 29.96 in1014.6 mb 0.00 in0.0 mm 0.00 in/hr0.0 mm/hr 0.02 in0.5 mm
03:25 AM 49.0°F9.4°C 48.6°F9.2°C 99% 5.6 mph ENE9.0 kmh ENE 13.3 mph21.4 kmh 29.95 in1014.2 mb 0.00 in0.0 mm 0.00 in/hr0.0 mm/hr 0.02 in0.5 mm
03:20 AM 49.0°F9.4°C 48.6°F9.2°C 99% 3.1 mph ENE5.0 kmh ENE 11.1 mph17.9 kmh 29.96 in1014.6 mb 0.00 in0.0 mm 0.00 in/hr0.0 mm/hr 0.02 in0.5 mm
03:15 AM 48.8°F9.3°C 48.4°F9.1°C 99% 4.1 mph NE6.6 kmh NE 10.5 mph16.9 kmh 29.96 in1014.6 mb 0.00 in0.0 mm 0.00 in/hr0.0 mm/hr 0.02 in0.5 mm
03:10 AM 48.7°F9.3°C 48.3°F9.1°C 99% 6.9 mph NE11.1 kmh NE 14.5 mph23.3 kmh 29.96 in1014.6 mb 0.00 in0.0 mm 0.00 in/hr0.0 mm/hr 0.02 in0.5 mm
03:05 AM 48.7°F9.3°C 48.3°F9.1°C 99% 3.6 mph NNE5.8 kmh NNE 7.9 mph12.7 kmh 29.97 in1014.9 mb 0.00 in0.0 mm 0.00 in/hr0.0 mm/hr 0.02 in0.5 mm
03:00 AM 48.7°F9.3°C 48.3°F9.1°C 99% 4.0 mph N6.4 kmh N 8.5 mph13.7 kmh 29.97 in1014.9 mb 0.00 in0.0 mm 0.00 in/hr0.0 mm/hr 0.02 in0.5 mm
02:55 AM 48.7°F9.3°C 48.3°F9.1°C 99% 3.7 mph NE6.0 kmh NE 8.4 mph13.5 kmh 29.97 in1014.9 mb 0.00 in0.0 mm 0.00 in/hr0.0 mm/hr 0.02 in0.5 mm
02:50 AM 48.7°F9.3°C 48.3°F9.1°C 99% 5.8 mph NE9.3 kmh NE 12.8 mph20.6 kmh 29.98 in1015.2 mb 0.00 in0.0 mm 0.00 in/hr0.0 mm/hr 0.02 in0.5 mm
02:45 AM 48.5°F9.2°C 48.2°F9.0°C 99% 4.4 mph ENE7.1 kmh ENE 12.0 mph19.3 kmh 29.98 in1015.2 mb 0.00 in0.0 mm 0.00 in/hr0.0 mm/hr 0.02 in0.5 mm
02:40 AM 48.3°F9.1°C 47.9°F8.8°C 99% 5.1 mph NE8.2 kmh NE 13.8 mph22.2 kmh 29.98 in1015.2 mb 0.00 in0.0 mm 0.00 in/hr0.0 mm/hr 0.02 in0.5 mm
02:35 AM 48.2°F9.0°C 47.8°F8.8°C 99% 3.9 mph E6.3 kmh E 10.0 mph16.1 kmh 29.98 in1015.2 mb 0.00 in0.0 mm 0.00 in/hr0.0 mm/hr 0.02 in0.5 mm
02:30 AM 48.2°F9.0°C 47.8°F8.8°C 99% 5.3 mph NE8.5 kmh NE 12.0 mph19.3 kmh 29.99 in1015.6 mb 0.00 in0.0 mm 0.00 in/hr0.0 mm/hr 0.01 in0.3 mm
02:25 AM 48.2°F9.0°C 47.8°F8.8°C 99% 5.4 mph E8.7 kmh E 11.9 mph19.2 kmh 29.99 in1015.6 mb 0.00 in0.0 mm 0.00 in/hr0.0 mm/hr 0.01 in0.3 mm
02:20 AM 48.1°F8.9°C 47.7°F8.7°C 99% 4.1 mph E6.6 kmh E 11.4 mph18.3 kmh 29.99 in1015.6 mb 0.00 in0.0 mm 0.00 in/hr0.0 mm/hr 0.01 in0.3 mm
02:15 AM 48.0°F8.9°C 47.6°F8.7°C 99% 5.7 mph ENE9.2 kmh ENE 12.0 mph19.3 kmh 29.99 in1015.6 mb 0.00 in0.0 mm 0.00 in/hr0.0 mm/hr 0.01 in0.3 mm
02:10 AM 48.0°F8.9°C 47.3°F8.5°C 98% 4.7 mph NE7.6 kmh NE 11.9 mph19.2 kmh 29.99 in1015.6 mb 0.00 in0.0 mm 0.00 in/hr0.0 mm/hr 0.00 in0.0 mm
02:05 AM 48.0°F8.9°C 47.3°F8.5°C 98% 4.6 mph NE7.4 kmh NE 12.0 mph19.3 kmh 29.99 in1015.6 mb 0.00 in0.0 mm 0.00 in/hr0.0 mm/hr 0.00 in0.0 mm
02:00 AM 48.0°F8.9°C 47.3°F8.5°C 98% 4.8 mph NE7.7 kmh NE 10.6 mph17.1 kmh 30.00 in1015.9 mb 0.00 in0.0 mm 0.00 in/hr0.0 mm/hr 0.00 in0.0 mm
01:55 AM 48.0°F8.9°C 47.3°F8.5°C 98% 6.2 mph ENE10.0 kmh ENE 13.5 mph21.7 kmh 30.00 in1015.9 mb 0.00 in0.0 mm 0.00 in/hr0.0 mm/hr 0.00 in0.0 mm
01:50 AM 48.0°F8.9°C 47.3°F8.5°C 98% 5.9 mph ENE9.5 kmh ENE 14.0 mph22.5 kmh 30.00 in1015.9 mb 0.00 in0.0 mm 0.00 in/hr0.0 mm/hr 0.00 in0.0 mm
01:45 AM 47.8°F8.8°C 47.1°F8.4°C 98% 5.2 mph ENE8.4 kmh ENE 16.8 mph27.0 kmh 30.00 in1015.9 mb 0.00 in0.0 mm 0.00 in/hr0.0 mm/hr 0.00 in0.0 mm
01:40 AM 47.8°F8.8°C 47.1°F8.4°C 98% 6.0 mph E9.7 kmh E 16.6 mph26.7 kmh 30.01 in1016.3 mb 0.00 in0.0 mm 0.00 in/hr0.0 mm/hr 0.00 in0.0 mm
01:35 AM 47.7°F8.7°C 47.0°F8.3°C 98% 5.7 mph E9.2 kmh E 14.5 mph23.3 kmh 30.01 in1016.3 mb 0.00 in0.0 mm 0.00 in/hr0.0 mm/hr 0.00 in0.0 mm
01:30 AM 47.6°F8.7°C 46.9°F8.3°C 98% 5.8 mph ENE9.3 kmh ENE 12.0 mph19.3 kmh 30.01 in1016.3 mb 0.00 in0.0 mm 0.00 in/hr0.0 mm/hr 0.00 in0.0 mm
01:25 AM 47.5°F8.6°C 46.8°F8.2°C 98% 4.5 mph NE7.2 kmh NE 11.4 mph18.3 kmh 30.01 in1016.3 mb 0.00 in0.0 mm 0.00 in/hr0.0 mm/hr 0.00 in0.0 mm
01:20 AM 47.3°F8.5°C 46.6°F8.1°C 98% 6.3 mph NE10.1 kmh NE 15.1 mph24.3 kmh 30.01 in1016.3 mb 0.00 in0.0 mm 0.00 in/hr0.0 mm/hr 0.00 in0.0 mm
01:15 AM 47.3°F8.5°C 46.6°F8.1°C 98% 5.5 mph E8.9 kmh E 15.5 mph24.9 kmh 30.01 in1016.3 mb 0.00 in0.0 mm 0.00 in/hr0.0 mm/hr 0.00 in0.0 mm
01:10 AM 47.3°F8.5°C 46.2°F7.9°C 97% 5.9 mph N9.5 kmh N 15.4 mph24.8 kmh 30.01 in1016.3 mb 0.00 in0.0 mm 0.00 in/hr0.0 mm/hr 0.00 in0.0 mm
01:05 AM 47.2°F8.4°C 46.1°F7.8°C 97% 4.6 mph NE7.4 kmh NE 11.6 mph18.7 kmh 30.02 in1016.6 mb 0.00 in0.0 mm 0.00 in/hr0.0 mm/hr 0.00 in0.0 mm
01:00 AM 47.4°F8.6°C 46.3°F7.9°C 97% 4.7 mph E7.6 kmh E 11.6 mph18.7 kmh 30.02 in1016.6 mb 0.00 in0.0 mm 0.00 in/hr0.0 mm/hr 0.00 in0.0 mm
12:55 AM 47.5°F8.6°C 46.1°F7.8°C 96% 5.2 mph NNE8.4 kmh NNE 14.6 mph23.5 kmh 30.02 in1016.6 mb 0.00 in0.0 mm 0.00 in/hr0.0 mm/hr 0.00 in0.0 mm
12:50 AM 47.6°F8.7°C 46.1°F7.8°C 96% 6.9 mph NE11.1 kmh NE 13.0 mph20.9 kmh 30.02 in1016.6 mb 0.00 in0.0 mm 0.00 in/hr0.0 mm/hr 0.00 in0.0 mm
12:45 AM 47.6°F8.7°C 46.2°F7.9°C 96% 5.9 mph NE9.5 kmh NE 12.4 mph20.0 kmh 30.02 in1016.6 mb 0.00 in0.0 mm 0.00 in/hr0.0 mm/hr 0.00 in0.0 mm
12:40 AM 47.7°F8.7°C 46.3°F7.9°C 96% 5.2 mph E8.4 kmh E 16.3 mph26.2 kmh 30.03 in1016.9 mb 0.00 in0.0 mm 0.00 in/hr0.0 mm/hr 0.00 in0.0 mm
12:35 AM 47.7°F8.7°C 46.3°F7.9°C 96% 6.8 mph NE10.9 kmh NE 18.1 mph29.1 kmh 30.03 in1016.9 mb 0.00 in0.0 mm 0.00 in/hr0.0 mm/hr 0.00 in0.0 mm
12:30 AM 47.7°F8.7°C 46.3°F7.9°C 96% 4.7 mph ENE7.6 kmh ENE 15.4 mph24.8 kmh 30.03 in1016.9 mb 0.00 in0.0 mm 0.00 in/hr0.0 mm/hr 0.00 in0.0 mm
12:25 AM 47.7°F8.7°C 45.9°F7.7°C 95% 7.1 mph NE11.4 kmh NE 17.6 mph28.3 kmh 30.03 in1016.9 mb 0.00 in0.0 mm 0.00 in/hr0.0 mm/hr 0.00 in0.0 mm
12:20 AM 47.8°F8.8°C 46.0°F7.8°C 95% 6.3 mph NE10.1 kmh NE 11.4 mph18.3 kmh 30.03 in1016.9 mb 0.00 in0.0 mm 0.00 in/hr0.0 mm/hr 0.00 in0.0 mm
12:15 AM 47.8°F8.8°C 46.0°F7.8°C 95% 5.6 mph NE9.0 kmh NE 15.9 mph25.6 kmh 30.04 in1017.3 mb 0.00 in0.0 mm 0.00 in/hr0.0 mm/hr 0.00 in0.0 mm
12:10 AM 47.7°F8.7°C 45.9°F7.7°C 95% 5.9 mph ENE9.5 kmh ENE 15.9 mph25.6 kmh 30.04 in1017.3 mb 0.00 in0.0 mm 0.00 in/hr0.0 mm/hr 0.00 in0.0 mm
12:05 AM 47.7°F8.7°C 45.9°F7.7°C 95% 6.4 mph NE10.3 kmh NE 14.9 mph24.0 kmh 30.04 in1017.3 mb 0.00 in0.0 mm 0.00 in/hr0.0 mm/hr 0.00 in0.0 mm
12:00 AM 47.7°F8.7°C 45.9°F7.7°C 95% 7.5 mph ENE12.1 kmh ENE 19.1 mph30.7 kmh 30.04 in1017.3 mb 0.00 in0.0 mm 0.00 in/hr0.0 mm/hr 0.56 in14.2 mm
WeatherForYou.com, LLC is not responsible for any damages or problems caused by this service. Current weather conditions are obtained from the closest station including government and personal stations which may have varying degrees of accuracy. Weather forecasts are derived from the NOAA NDFD and obtained through HAMweather's Aeris Weather API. Like all things, this site belongs to Jesus Christ... He just trusts me to maintain it. If you have any questions or comments email webmaster@weatherforyou.com

Copyright © 2014, WeatherForYou.com LLC. All rights reserved.